createdAt,value
2018-08-17T00:01:49.184Z,49.60
2018-08-17T00:05:52.894Z,49.70
2018-08-17T00:09:56.620Z,49.00
2018-08-17T00:14:00.320Z,49.00
2018-08-17T00:18:04.075Z,49.00
2018-08-17T00:22:08.785Z,49.10
2018-08-17T00:26:12.541Z,49.40
2018-08-17T00:30:16.224Z,49.30
2018-08-17T00:34:19.896Z,49.40
2018-08-17T00:38:23.584Z,49.40
2018-08-17T00:42:27.417Z,49.50
2018-08-17T00:46:31.117Z,49.90
2018-08-17T00:50:34.956Z,49.60
2018-08-17T00:54:38.651Z,49.80
2018-08-17T00:58:42.344Z,49.70
2018-08-17T01:02:46.046Z,49.70
2018-08-17T01:06:49.712Z,49.80
2018-08-17T01:10:53.397Z,50.10
2018-08-17T01:14:57.092Z,50.60
2018-08-17T01:19:00.792Z,50.80
2018-08-17T01:23:04.550Z,51.00
2018-08-17T01:27:08.224Z,50.50
2018-08-17T01:31:11.972Z,50.20
2018-08-17T01:35:15.668Z,50.30
2018-08-17T01:39:19.360Z,50.30
2018-08-17T01:43:23.048Z,50.30
2018-08-17T01:47:26.787Z,50.40
2018-08-17T01:51:30.488Z,50.30
2018-08-17T01:55:34.189Z,50.40
2018-08-17T01:59:37.908Z,50.40
2018-08-17T02:03:41.627Z,50.60
2018-08-17T02:07:45.296Z,50.50
2018-08-17T02:11:49.018Z,50.50
2018-08-17T02:15:52.727Z,50.40
2018-08-17T02:19:56.428Z,50.50
2018-08-17T02:24:00.173Z,50.40
2018-08-17T02:28:03.905Z,50.50
2018-08-17T02:32:07.664Z,50.50
2018-08-17T02:36:11.365Z,50.70
2018-08-17T02:40:15.123Z,51.00
2018-08-17T02:44:18.854Z,50.90
2018-08-17T02:48:22.526Z,50.90
2018-08-17T02:52:26.290Z,50.90
2018-08-17T02:56:30.031Z,50.90
2018-08-17T03:00:33.737Z,50.90
2018-08-17T03:04:37.418Z,51.00
2018-08-17T03:08:41.072Z,51.00
2018-08-17T03:12:44.750Z,51.10
2018-08-17T03:16:48.765Z,51.10
2018-08-17T03:20:52.486Z,51.00
2018-08-17T03:24:56.233Z,51.00
2018-08-17T03:28:59.889Z,51.40
2018-08-17T03:33:03.627Z,51.40
2018-08-17T03:37:07.495Z,51.50
2018-08-17T03:41:11.192Z,51.30
2018-08-17T03:45:14.877Z,51.40
2018-08-17T03:49:18.606Z,51.40
2018-08-17T03:53:22.292Z,53.20
2018-08-17T03:57:26.072Z,52.90
2018-08-17T04:01:29.773Z,54.10
2018-08-17T04:05:33.445Z,53.40
2018-08-17T04:09:37.105Z,53.70
2018-08-17T04:13:40.816Z,53.90
2018-08-17T04:17:44.499Z,56.10
2018-08-17T04:21:48.183Z,54.90
2018-08-17T04:25:51.960Z,55.10
2018-08-17T04:29:55.609Z,54.40
2018-08-17T04:33:59.287Z,55.00
2018-08-17T04:38:03.080Z,54.10
2018-08-17T04:42:06.784Z,55.40
2018-08-17T04:46:10.568Z,54.70
2018-08-17T04:50:14.230Z,55.30
2018-08-17T04:54:18.014Z,55.60
2018-08-17T04:58:21.802Z,56.10
2018-08-17T05:02:25.496Z,55.40
2018-08-17T05:06:29.200Z,54.90
2018-08-17T05:10:32.856Z,54.90
2018-08-17T05:14:36.566Z,54.50
2018-08-17T05:18:40.266Z,54.50
2018-08-17T05:22:43.976Z,54.30
2018-08-17T05:26:47.688Z,54.10
2018-08-17T05:34:49.750Z,52.80
2018-08-17T05:38:53.722Z,54.30
2018-08-17T05:42:57.427Z,54.60
2018-08-17T05:47:01.233Z,55.60
2018-08-17T05:51:04.947Z,55.80
2018-08-17T05:55:08.666Z,55.20
2018-08-17T05:59:12.451Z,56.50
2018-08-17T06:03:16.274Z,56.30
2018-08-17T06:07:19.972Z,55.90
2018-08-17T06:11:23.862Z,55.60
2018-08-17T06:15:27.485Z,57.00
2018-08-17T06:19:31.158Z,56.60
2018-08-17T06:23:34.885Z,56.30
2018-08-17T06:27:38.981Z,56.70
2018-08-17T06:31:42.692Z,56.40
2018-08-17T06:35:46.382Z,57.60
2018-08-17T06:39:50.403Z,55.80
2018-08-17T06:43:54.102Z,55.30
2018-08-17T06:47:57.810Z,55.10
2018-08-17T06:52:01.469Z,55.10
2018-08-17T06:56:05.212Z,54.80
2018-08-17T07:00:14.340Z,55.00
2018-08-17T07:04:18.073Z,55.50
2018-08-17T07:08:21.759Z,56.50
2018-08-17T07:12:25.454Z,56.40
2018-08-17T07:16:29.222Z,55.40
2018-08-17T07:20:32.946Z,55.20
2018-08-17T07:24:36.798Z,56.30
2018-08-17T07:28:40.481Z,55.50
2018-08-17T07:32:44.114Z,56.00
2018-08-17T07:36:47.912Z,55.50
2018-08-17T07:40:51.614Z,55.20
2018-08-17T07:44:55.383Z,56.00
2018-08-17T07:48:59.052Z,55.70
2018-08-17T07:53:02.726Z,56.00
2018-08-17T07:57:06.508Z,55.80
2018-08-17T08:01:10.309Z,55.30
2018-08-17T08:05:14.019Z,55.20
2018-08-17T08:09:17.835Z,55.00
2018-08-17T08:13:21.719Z,55.20
2018-08-17T08:17:25.497Z,54.90
2018-08-17T08:21:29.166Z,55.00
2018-08-17T08:25:33.226Z,54.60
2018-08-17T08:29:36.918Z,54.80
2018-08-17T08:33:40.592Z,55.00
2018-08-17T08:37:44.448Z,54.80
2018-08-17T08:41:48.128Z,54.50
2018-08-17T08:45:51.887Z,54.60
2018-08-17T08:49:55.667Z,54.70
2018-08-17T08:53:59.319Z,54.60
2018-08-17T08:58:03.024Z,55.40
2018-08-17T09:02:06.751Z,55.00
2018-08-17T09:06:10.410Z,55.40
2018-08-17T09:10:14.151Z,55.20
2018-08-17T09:14:17.829Z,55.40
2018-08-17T09:18:21.512Z,55.20
2018-08-17T09:22:25.224Z,54.80
2018-08-17T09:30:38.708Z,54.20
2018-08-17T09:34:42.394Z,54.80
2018-08-17T09:38:46.073Z,54.50
2018-08-17T09:42:49.793Z,54.40
2018-08-17T09:46:53.469Z,54.50
2018-08-17T09:50:57.163Z,54.60
2018-08-17T09:55:00.824Z,54.50
2018-08-17T09:59:05.025Z,54.50
2018-08-17T10:03:12.957Z,55.00
2018-08-17T10:07:21.881Z,54.90
2018-08-17T10:11:25.627Z,55.10
2018-08-17T10:15:29.311Z,55.30
2018-08-17T10:19:33.053Z,55.40
2018-08-17T10:23:36.751Z,55.30
2018-08-17T10:27:40.490Z,55.50
2018-08-17T10:31:44.569Z,56.10
2018-08-17T10:35:48.254Z,57.20
2018-08-17T10:39:52.199Z,58.60
2018-08-17T10:43:55.911Z,58.80
2018-08-17T10:47:59.833Z,58.90
2018-08-17T10:52:03.560Z,58.60
2018-08-17T10:56:07.320Z,58.90
2018-08-17T11:00:14.544Z,58.30
2018-08-17T11:04:18.226Z,58.30
2018-08-17T11:08:21.900Z,58.50
2018-08-17T11:12:25.544Z,58.40
2018-08-17T11:16:29.255Z,59.00
2018-08-17T11:20:32.938Z,59.70
2018-08-17T11:24:36.660Z,59.10
2018-08-17T11:28:40.377Z,59.10
2018-08-17T11:32:44.145Z,58.80
2018-08-17T11:36:47.835Z,59.60
2018-08-17T11:40:51.516Z,59.20
2018-08-17T11:44:55.199Z,59.00
2018-08-17T11:48:58.872Z,58.80
2018-08-17T11:53:02.530Z,58.80
2018-08-17T11:57:06.287Z,58.40
2018-08-17T12:01:15.540Z,57.90
2018-08-17T12:05:19.172Z,58.70
2018-08-17T12:09:22.858Z,57.80
2018-08-17T12:13:26.722Z,57.60
2018-08-17T12:17:30.565Z,57.50
2018-08-17T12:21:34.253Z,57.30
2018-08-17T12:25:43.575Z,57.40
2018-08-17T12:29:47.264Z,57.20
2018-08-17T12:33:50.935Z,57.10
2018-08-17T12:38:00.111Z,57.30
2018-08-17T12:42:03.853Z,56.90
2018-08-17T12:46:07.672Z,56.80
2018-08-17T12:50:11.394Z,56.60
2018-08-17T12:54:25.942Z,56.40
2018-08-17T12:58:29.638Z,56.00
2018-08-17T13:02:33.317Z,55.60
2018-08-17T13:06:37.068Z,55.40
2018-08-17T13:10:40.807Z,54.90
2018-08-17T13:14:44.440Z,55.30
2018-08-17T13:18:48.175Z,55.50
2018-08-17T13:22:51.888Z,55.30
2018-08-17T13:26:55.613Z,55.00
2018-08-17T13:30:59.296Z,54.90
2018-08-17T13:35:03.056Z,55.00
2018-08-17T13:39:08.977Z,54.60
2018-08-17T13:43:12.672Z,55.10
2018-08-17T13:47:16.525Z,54.40
2018-08-17T13:51:20.208Z,54.20
2018-08-17T13:55:24.044Z,52.80
2018-08-17T13:59:27.892Z,54.10
2018-08-17T14:03:32.470Z,54.00
2018-08-17T14:07:36.180Z,53.30
2018-08-17T14:11:39.871Z,53.10
2018-08-17T14:15:43.585Z,52.50
2018-08-17T14:19:47.290Z,52.20
2018-08-17T14:23:51.169Z,52.40
2018-08-17T14:27:54.896Z,52.80
2018-08-17T14:31:58.601Z,52.50
2018-08-17T14:36:02.263Z,52.00
2018-08-17T14:40:06.176Z,52.30
2018-08-17T14:44:09.901Z,52.30
2018-08-17T14:48:13.716Z,52.60
2018-08-17T14:52:17.428Z,54.00
2018-08-17T14:56:21.100Z,54.00
2018-08-17T15:00:24.793Z,54.50
2018-08-17T15:04:28.497Z,54.80
2018-08-17T15:08:32.196Z,55.10
2018-08-17T15:12:35.911Z,54.60
2018-08-17T15:16:39.655Z,54.60
2018-08-17T15:20:43.404Z,54.30
2018-08-17T15:24:47.145Z,54.20
2018-08-17T15:28:50.893Z,54.00
2018-08-17T15:32:54.601Z,54.00
2018-08-17T15:36:58.248Z,54.20
2018-08-17T15:41:02.016Z,54.10
2018-08-17T15:45:06.892Z,54.00
2018-08-17T15:49:14.189Z,54.00
2018-08-17T15:53:17.885Z,53.80
2018-08-17T15:57:21.638Z,53.80
2018-08-17T16:01:25.419Z,53.60
2018-08-17T16:05:29.068Z,53.50
2018-08-17T16:09:32.776Z,53.40
2018-08-17T16:13:36.449Z,53.40
2018-08-17T16:17:40.300Z,53.70
2018-08-17T16:21:44.008Z,53.60
2018-08-17T16:25:47.856Z,53.90
2018-08-17T16:29:51.549Z,53.90
2018-08-17T16:33:55.297Z,53.60
2018-08-17T16:37:59.044Z,53.60
2018-08-17T16:42:02.759Z,53.60
2018-08-17T16:46:06.475Z,53.50
2018-08-17T16:50:10.271Z,53.60
2018-08-17T16:54:13.940Z,53.80
2018-08-17T16:58:17.751Z,53.60
2018-08-17T17:02:21.462Z,53.70
2018-08-17T17:06:25.208Z,53.40
2018-08-17T17:10:30.543Z,53.40
2018-08-17T17:14:34.281Z,53.30
2018-08-17T17:18:37.980Z,53.30
2018-08-17T17:22:41.687Z,52.60
2018-08-17T17:26:45.447Z,53.60
2018-08-17T17:30:50.148Z,52.80
2018-08-17T17:34:53.800Z,53.10
2018-08-17T17:38:57.525Z,53.10
2018-08-17T17:43:01.397Z,53.00
2018-08-17T17:47:05.108Z,53.00
2018-08-17T17:51:08.860Z,53.00
2018-08-17T17:55:12.528Z,52.90
2018-08-17T17:59:16.233Z,52.80
2018-08-17T18:03:19.942Z,52.80
2018-08-17T18:07:24.327Z,52.80
2018-08-17T18:11:28.231Z,52.80
2018-08-17T18:15:31.943Z,52.80
2018-08-17T18:19:35.718Z,52.90
2018-08-17T18:23:39.433Z,52.90
2018-08-17T18:27:43.249Z,52.90
2018-08-17T18:31:46.958Z,52.90
2018-08-17T18:35:50.650Z,53.00
2018-08-17T18:39:54.353Z,52.90
2018-08-17T18:43:58.301Z,53.00
2018-08-17T18:48:02.029Z,53.00
2018-08-17T18:52:05.818Z,53.00
2018-08-17T18:56:09.499Z,53.00
2018-08-17T19:00:13.990Z,53.00
2018-08-17T19:04:17.688Z,53.00
2018-08-17T19:08:21.378Z,53.00
2018-08-17T19:12:25.122Z,53.10
2018-08-17T19:16:28.785Z,53.10
2018-08-17T19:20:32.492Z,53.00
2018-08-17T19:24:36.246Z,53.10
2018-08-17T19:28:40.087Z,53.10
2018-08-17T19:32:43.789Z,53.20
2018-08-17T19:36:47.546Z,53.20
2018-08-17T19:40:51.482Z,53.20
2018-08-17T19:44:55.191Z,53.20
2018-08-17T19:48:58.873Z,53.30
2018-08-17T19:53:02.580Z,53.30
2018-08-17T19:57:06.348Z,53.40
2018-08-17T20:01:10.045Z,53.40
2018-08-17T20:05:13.992Z,53.40
2018-08-17T20:09:17.712Z,53.60
2018-08-17T20:13:21.385Z,53.60
2018-08-17T20:17:25.081Z,53.50
2018-08-17T20:21:28.791Z,53.50
2018-08-17T20:25:32.504Z,53.60
2018-08-17T20:29:36.193Z,53.60
2018-08-17T20:33:39.876Z,53.70
2018-08-17T20:37:45.427Z,53.70
2018-08-17T20:41:49.148Z,53.80
2018-08-17T20:45:52.866Z,53.90
2018-08-17T20:49:56.624Z,53.90
2018-08-17T20:54:01.691Z,53.90
2018-08-17T20:58:05.772Z,54.50
2018-08-17T21:02:09.461Z,53.90
2018-08-17T21:06:13.175Z,54.00
2018-08-17T21:10:16.888Z,54.10
2018-08-17T21:14:20.580Z,54.10
2018-08-17T21:18:24.274Z,54.10
2018-08-17T21:22:27.983Z,54.20
2018-08-17T21:26:33.190Z,54.40
2018-08-17T21:30:36.893Z,54.90
2018-08-17T21:34:40.537Z,54.40
2018-08-17T21:38:44.355Z,54.40
2018-08-17T21:42:48.316Z,54.40
2018-08-17T21:46:57.264Z,54.40
2018-08-17T21:51:01.309Z,54.60
2018-08-17T21:55:04.983Z,54.50
2018-08-17T21:59:08.671Z,54.60
2018-08-17T22:03:24.945Z,54.70
2018-08-17T22:07:31.137Z,54.80
2018-08-17T22:11:35.644Z,54.80
2018-08-17T22:15:39.347Z,54.70
2018-08-17T22:19:43.556Z,54.90
2018-08-17T22:23:47.229Z,55.40
2018-08-17T22:27:51.095Z,55.00
2018-08-17T22:31:54.792Z,55.00
2018-08-17T22:35:58.606Z,55.10
2018-08-17T22:40:02.291Z,55.10
2018-08-17T22:44:10.205Z,55.00
2018-08-17T22:48:13.909Z,55.10
2018-08-17T22:52:17.745Z,55.20
2018-08-17T22:56:21.433Z,55.40
2018-08-17T23:00:26.483Z,55.70
2018-08-17T23:04:30.248Z,56.10
2018-08-17T23:08:33.947Z,55.70
2018-08-17T23:12:37.662Z,56.00
2018-08-17T23:16:41.425Z,56.20
2018-08-17T23:20:45.088Z,55.80
2018-08-17T23:24:48.813Z,55.60
2018-08-17T23:28:52.481Z,55.60
2018-08-17T23:32:56.362Z,55.70
2018-08-17T23:37:00.185Z,55.70
2018-08-17T23:41:03.891Z,55.80
2018-08-17T23:45:10.373Z,55.90
2018-08-17T23:49:14.057Z,55.80
2018-08-17T23:53:17.757Z,56.00
2018-08-17T23:57:21.459Z,56.00
